createdAt,value
2023-02-19T00:01:33.625Z,81.23
2023-02-19T00:04:06.079Z,81.51
2023-02-19T00:06:34.381Z,81.15
2023-02-19T00:09:01.724Z,81.79
2023-02-19T00:11:31.883Z,81.48
2023-02-19T00:14:00.049Z,81.39
2023-02-19T00:16:32.910Z,81.60
2023-02-19T00:19:06.776Z,82.28
2023-02-19T00:21:34.169Z,82.93
2023-02-19T00:24:04.514Z,83.46
2023-02-19T00:26:32.051Z,84.94
2023-02-19T00:28:59.269Z,85.44
2023-02-19T00:31:33.204Z,86.29
2023-02-19T00:34:06.488Z,86.46
2023-02-19T00:36:38.726Z,87.08
2023-02-19T00:39:07.593Z,86.97
2023-02-19T00:41:35.186Z,87.34
2023-02-19T00:44:04.839Z,87.36
2023-02-19T00:46:42.872Z,87.32
2023-02-19T00:49:15.283Z,87.41
2023-02-19T00:51:47.325Z,87.16
2023-02-19T00:54:15.036Z,87.19
2023-02-19T00:56:42.455Z,86.56
2023-02-19T00:59:09.737Z,86.95
2023-02-19T01:01:37.173Z,87.74
2023-02-19T01:04:06.550Z,89.03
2023-02-19T01:06:34.842Z,90.15
2023-02-19T01:09:01.701Z,90.61
2023-02-19T01:11:28.568Z,92.11
2023-02-19T01:13:59.854Z,92.01
2023-02-19T01:16:29.577Z,92.59
2023-02-19T01:18:57.715Z,92.57
2023-02-19T01:21:26.679Z,93.06
2023-02-19T01:23:53.810Z,93.59
2023-02-19T01:26:26.848Z,95.00
2023-02-19T01:28:53.906Z,95.77
2023-02-19T01:31:25.522Z,95.12
2023-02-19T01:33:58.431Z,94.40
2023-02-19T01:36:26.173Z,94.23
2023-02-19T01:38:53.459Z,94.04
2023-02-19T01:41:25.898Z,94.19
2023-02-19T01:44:11.754Z,93.79
2023-02-19T01:46:48.944Z,93.97
2023-02-19T01:49:18.436Z,93.48
2023-02-19T01:51:49.749Z,92.15
2023-02-19T01:54:18.416Z,92.41
2023-02-19T01:56:48.711Z,91.98
2023-02-19T02:01:43.448Z,90.88
2023-02-19T02:04:12.178Z,89.52
2023-02-19T02:06:57.870Z,89.31
2023-02-19T02:09:46.428Z,88.69
2023-02-19T02:12:14.103Z,88.43
2023-02-19T02:14:47.517Z,88.27
2023-02-19T02:17:20.687Z,87.85
2023-02-19T02:20:19.217Z,86.83
2023-02-19T02:22:45.979Z,86.96
2023-02-19T02:25:18.488Z,86.65
2023-02-19T02:27:53.844Z,86.25
2023-02-19T02:30:32.769Z,85.80
2023-02-19T02:33:18.323Z,86.00
2023-02-19T02:35:53.163Z,86.10
2023-02-19T02:38:30.778Z,86.03
2023-02-19T02:40:58.697Z,85.73
2023-02-19T02:43:41.549Z,85.62
2023-02-19T02:46:12.351Z,85.46
2023-02-19T02:49:03.517Z,85.29
2023-02-19T02:51:34.677Z,85.18
2023-02-19T02:56:48.438Z,85.25
2023-02-19T02:59:18.400Z,84.78
2023-02-19T03:02:11.657Z,85.06
2023-02-19T03:05:18.295Z,85.53
2023-02-19T03:08:04.174Z,85.19
2023-02-19T03:10:37.557Z,85.33
2023-02-19T03:16:06.360Z,85.23
2023-02-19T03:18:57.642Z,85.26
2023-02-19T03:21:26.011Z,85.56
2023-02-19T03:24:14.695Z,85.56
2023-02-19T03:26:47.033Z,86.02
2023-02-19T03:29:18.433Z,86.18
2023-02-19T03:31:47.579Z,86.58
2023-02-19T03:34:18.641Z,86.29
2023-02-19T03:36:53.034Z,86.76
2023-02-19T03:39:23.426Z,86.80
2023-02-19T03:42:00.460Z,87.26
2023-02-19T03:44:39.192Z,87.45
2023-02-19T03:49:50.059Z,87.39
2023-02-19T03:52:17.401Z,87.84
2023-02-19T03:54:47.028Z,87.92
2023-02-19T03:57:17.454Z,87.88
2023-02-19T03:59:55.825Z,87.86
2023-02-19T04:02:39.892Z,88.16
2023-02-19T04:05:14.243Z,88.83
2023-02-19T04:07:46.830Z,87.99
2023-02-19T04:10:15.286Z,88.07
2023-02-19T04:12:48.726Z,87.72
2023-02-19T04:15:20.773Z,87.35
2023-02-19T04:17:58.923Z,87.52
2023-02-19T04:20:29.920Z,87.00
2023-02-19T04:22:57.329Z,86.65
2023-02-19T04:25:26.364Z,86.37
2023-02-19T04:27:53.259Z,86.50
2023-02-19T04:30:21.963Z,87.27
2023-02-19T04:32:48.872Z,88.23
2023-02-19T04:35:15.624Z,88.36
2023-02-19T04:37:45.558Z,88.01
2023-02-19T04:40:12.261Z,87.73
2023-02-19T04:42:39.805Z,87.26
2023-02-19T04:45:06.884Z,86.55
2023-02-19T04:47:33.808Z,86.98
2023-02-19T04:50:00.580Z,86.60
2023-02-19T04:52:27.397Z,86.25
2023-02-19T04:54:54.239Z,86.35
2023-02-19T04:57:21.323Z,87.35
2023-02-19T04:59:51.521Z,86.88
2023-02-19T05:02:18.898Z,87.17
2023-02-19T05:04:45.635Z,87.75
2023-02-19T05:07:12.553Z,88.72
2023-02-19T05:09:40.013Z,89.36
2023-02-19T05:12:07.011Z,89.66
2023-02-19T05:14:37.022Z,90.55
2023-02-19T05:17:03.830Z,91.37
2023-02-19T05:19:30.691Z,91.84
2023-02-19T05:21:57.695Z,91.42
2023-02-19T05:24:24.671Z,91.60
2023-02-19T05:26:51.444Z,92.10
2023-02-19T05:29:19.157Z,94.23
2023-02-19T05:31:47.799Z,96.30
2023-02-19T05:34:15.187Z,95.86
2023-02-19T05:36:42.097Z,97.91
2023-02-19T05:39:12.328Z,99.23
2023-02-19T05:41:39.568Z,98.21
2023-02-19T05:44:06.437Z,96.99
2023-02-19T05:46:33.456Z,96.39
2023-02-19T05:49:00.284Z,96.23
2023-02-19T05:51:27.918Z,96.03
2023-02-19T05:53:56.656Z,95.05
2023-02-19T05:56:26.914Z,94.27
2023-02-19T05:58:54.770Z,93.80
2023-02-19T06:01:24.348Z,93.81
2023-02-19T06:03:57.238Z,92.94
2023-02-19T06:06:25.173Z,92.59
2023-02-19T06:08:52.059Z,91.04
2023-02-19T06:11:19.626Z,90.78
2023-02-19T06:13:46.952Z,89.39
2023-02-19T06:18:42.851Z,88.78
2023-02-19T06:21:13.587Z,88.64
2023-02-19T06:23:41.516Z,88.56
2023-02-19T06:26:12.169Z,87.76
2023-02-19T06:28:42.223Z,87.18
2023-02-19T06:31:10.343Z,86.16
2023-02-19T06:33:41.622Z,86.42
2023-02-19T06:36:14.963Z,85.69
2023-02-19T06:38:42.059Z,85.22
2023-02-19T06:41:11.562Z,83.99
2023-02-19T06:43:39.059Z,83.85
2023-02-19T06:46:08.254Z,83.50
2023-02-19T06:48:36.026Z,83.23
2023-02-19T06:51:03.357Z,83.07
2023-02-19T06:53:30.862Z,83.25
2023-02-19T06:56:19.642Z,83.13
2023-02-19T06:58:46.765Z,82.94
2023-02-19T07:01:13.635Z,82.59
2023-02-19T07:03:40.938Z,82.99
2023-02-19T07:06:07.993Z,83.10
2023-02-19T07:08:35.188Z,82.13
2023-02-19T07:11:02.478Z,81.95
2023-02-19T07:13:29.168Z,82.11
2023-02-19T07:16:01.226Z,82.32
2023-02-19T07:18:28.646Z,82.22
2023-02-19T07:20:55.757Z,82.32
2023-02-19T07:23:28.837Z,81.71
2023-02-19T07:25:55.719Z,81.88
2023-02-19T07:28:22.615Z,81.43
2023-02-19T07:30:49.308Z,81.56
2023-02-19T07:35:50.346Z,80.61
2023-02-19T07:38:18.543Z,80.54
2023-02-19T07:40:59.201Z,80.24
2023-02-19T07:43:27.376Z,80.06
2023-02-19T07:45:54.324Z,79.91
2023-02-19T07:48:21.792Z,80.01
2023-02-19T07:50:59.444Z,80.63
2023-02-19T07:53:27.514Z,80.39
2023-02-19T07:55:54.543Z,80.45
2023-02-19T07:58:22.411Z,79.89
2023-02-19T08:00:49.191Z,80.10
2023-02-19T08:03:15.951Z,80.15
2023-02-19T08:05:43.984Z,80.25
2023-02-19T08:08:15.368Z,80.88
2023-02-19T08:11:00.949Z,82.01
2023-02-19T08:13:30.508Z,81.47
2023-02-19T08:16:16.916Z,80.96
2023-02-19T08:18:43.687Z,80.04
2023-02-19T08:21:11.142Z,79.72
2023-02-19T08:23:38.089Z,79.78
2023-02-19T08:26:05.918Z,79.54
2023-02-19T08:28:33.636Z,79.33
2023-02-19T08:31:05.155Z,79.84
2023-02-19T08:33:31.948Z,81.59
2023-02-19T08:36:04.861Z,82.56
2023-02-19T08:38:34.160Z,84.31
2023-02-19T08:41:07.769Z,89.29
2023-02-19T08:43:35.036Z,91.01
2023-02-19T08:46:07.233Z,92.67
2023-02-19T08:48:34.166Z,96.75
2023-02-19T08:51:07.556Z,95.32
2023-02-19T08:53:35.803Z,94.20
2023-02-19T08:56:07.415Z,93.01
2023-02-19T08:58:34.223Z,93.22
2023-02-19T09:01:01.060Z,90.73
2023-02-19T09:03:28.092Z,89.44
2023-02-19T09:05:55.010Z,88.14
2023-02-19T09:08:21.694Z,85.90
2023-02-19T09:11:02.759Z,87.74
2023-02-19T09:13:29.548Z,89.41
2023-02-19T09:16:00.348Z,90.87
2023-02-19T09:18:27.280Z,90.05
2023-02-19T09:20:54.021Z,89.23
2023-02-19T09:23:21.069Z,90.08
2023-02-19T09:25:47.831Z,89.22
2023-02-19T09:28:14.597Z,88.70
2023-02-19T09:30:41.379Z,87.92
2023-02-19T09:33:08.078Z,87.36
2023-02-19T09:35:34.769Z,85.46
2023-02-19T09:38:02.290Z,84.44
2023-02-19T09:40:30.741Z,82.75
2023-02-19T09:42:59.776Z,80.57
2023-02-19T09:45:27.764Z,79.92
2023-02-19T09:47:57.318Z,80.68
2023-02-19T09:50:47.265Z,81.76
2023-02-19T09:55:44.694Z,84.21
2023-02-19T09:58:17.677Z,89.27
2023-02-19T10:00:50.072Z,91.43
2023-02-19T10:05:43.858Z,91.84
2023-02-19T10:10:44.539Z,86.10
2023-02-19T10:13:17.609Z,86.79
2023-02-19T10:15:57.071Z,86.28
2023-02-19T10:18:28.492Z,85.10
2023-02-19T10:20:56.974Z,85.15
2023-02-19T10:23:25.227Z,83.49
2023-02-19T10:26:01.233Z,82.22
2023-02-19T10:28:35.043Z,82.48
2023-02-19T10:31:06.061Z,82.25
2023-02-19T10:33:32.994Z,82.66
2023-02-19T10:36:16.187Z,83.51
2023-02-19T10:38:47.930Z,83.25
2023-02-19T10:41:18.575Z,82.66
2023-02-19T10:44:15.137Z,84.01
2023-02-19T10:46:48.498Z,84.39
2023-02-19T10:49:22.514Z,84.79
2023-02-19T10:51:50.043Z,85.79
2023-02-19T10:54:19.156Z,88.66
2023-02-19T10:56:47.352Z,84.41
2023-02-19T10:59:18.694Z,85.18
2023-02-19T11:02:00.299Z,82.41
2023-02-19T11:04:32.729Z,81.23
2023-02-19T11:07:08.169Z,81.57
2023-02-19T11:09:39.687Z,80.42
2023-02-19T11:12:09.466Z,80.97
2023-02-19T11:14:43.518Z,79.73
2023-02-19T11:17:18.748Z,80.11
2023-02-19T11:19:48.760Z,79.04
2023-02-19T11:22:17.630Z,79.10
2023-02-19T11:24:50.126Z,78.67
2023-02-19T11:27:17.654Z,76.88
2023-02-19T11:29:44.935Z,78.05
2023-02-19T11:32:17.768Z,76.83
2023-02-19T11:34:44.692Z,77.33
2023-02-19T11:37:18.627Z,77.26
2023-02-19T11:39:48.730Z,76.51
2023-02-19T11:42:17.671Z,76.72
2023-02-19T11:44:44.326Z,77.07
2023-02-19T11:47:17.862Z,79.75
2023-02-19T11:50:15.852Z,82.24
2023-02-19T11:52:46.884Z,83.57
2023-02-19T11:55:13.681Z,81.91
2023-02-19T11:57:44.406Z,75.26
2023-02-19T12:00:19.076Z,75.98
2023-02-19T12:06:09.949Z,75.56
2023-02-19T12:09:00.077Z,73.70
2023-02-19T12:11:59.664Z,75.09
2023-02-19T12:14:51.217Z,75.94
2023-02-19T12:17:17.761Z,75.81
2023-02-19T12:20:18.736Z,74.33
2023-02-19T12:23:18.700Z,73.23
2023-02-19T12:25:48.675Z,66.94
2023-02-19T12:28:18.725Z,59.83
2023-02-19T12:31:18.708Z,62.21
2023-02-19T12:34:05.273Z,59.21
2023-02-19T12:37:06.822Z,64.58
2023-02-19T12:40:03.430Z,70.38
2023-02-19T12:42:50.793Z,72.74
2023-02-19T12:45:18.868Z,73.54
2023-02-19T12:47:59.000Z,72.86
2023-02-19T12:50:32.840Z,76.22
2023-02-19T12:53:23.874Z,76.26
2023-02-19T12:55:53.444Z,73.05
2023-02-19T12:58:33.454Z,70.31
2023-02-19T13:01:00.799Z,74.87
2023-02-19T13:03:43.782Z,77.16
2023-02-19T13:06:19.126Z,75.34
2023-02-19T13:09:06.331Z,74.71
2023-02-19T13:11:50.264Z,78.45
2023-02-19T13:14:18.729Z,79.08
2023-02-19T13:16:54.120Z,78.19
2023-02-19T13:19:20.891Z,77.76
2023-02-19T13:22:15.154Z,78.43
2023-02-19T13:24:45.854Z,76.39
2023-02-19T13:27:18.677Z,72.79
2023-02-19T13:30:04.363Z,70.51
2023-02-19T13:32:49.143Z,69.06
2023-02-19T13:35:16.175Z,69.28
2023-02-19T13:37:44.745Z,71.84
2023-02-19T13:40:19.350Z,66.31
2023-02-19T13:42:55.970Z,62.46
2023-02-19T13:45:31.722Z,59.68
2023-02-19T13:47:58.415Z,61.75
2023-02-19T13:50:26.848Z,63.11
2023-02-19T13:52:55.924Z,63.87
2023-02-19T13:55:46.357Z,63.28
2023-02-19T13:58:18.786Z,61.84
2023-02-19T14:00:51.586Z,53.74
2023-02-19T14:03:43.942Z,49.42
2023-02-19T14:06:11.048Z,49.03
2023-02-19T14:08:58.400Z,54.15
2023-02-19T14:12:16.396Z,57.87
2023-02-19T14:14:54.537Z,60.47
2023-02-19T14:17:24.114Z,55.50
2023-02-19T14:20:04.823Z,56.73
2023-02-19T14:22:47.192Z,54.20
2023-02-19T14:25:19.053Z,51.36
2023-02-19T14:27:46.324Z,57.18
2023-02-19T14:32:45.254Z,68.47
2023-02-19T14:35:19.038Z,68.63
2023-02-19T14:37:55.617Z,68.57
2023-02-19T14:40:41.842Z,70.63
2023-02-19T14:43:14.733Z,70.57
2023-02-19T14:45:48.281Z,71.46
2023-02-19T14:50:48.481Z,69.97
2023-02-19T14:55:53.071Z,69.86
2023-02-19T14:58:30.771Z,70.23
2023-02-19T15:00:58.035Z,69.58
2023-02-19T15:03:28.743Z,68.93
2023-02-19T15:06:13.609Z,68.38
2023-02-19T15:08:46.961Z,68.42
2023-02-19T15:11:19.913Z,68.00
2023-02-19T15:14:03.495Z,67.55
2023-02-19T15:16:36.653Z,68.53
2023-02-19T15:19:08.288Z,68.06
2023-02-19T15:21:39.894Z,69.65
2023-02-19T15:24:07.538Z,69.45
2023-02-19T15:26:43.552Z,70.79
2023-02-19T15:29:13.440Z,71.15
2023-02-19T15:31:49.537Z,72.03
2023-02-19T15:34:18.816Z,71.82
2023-02-19T15:36:46.581Z,71.63
2023-02-19T15:39:18.879Z,72.94
2023-02-19T15:41:52.241Z,72.83
2023-02-19T15:44:20.055Z,73.04
2023-02-19T15:46:47.558Z,73.43
2023-02-19T15:49:18.806Z,72.20
2023-02-19T15:51:52.475Z,73.96
2023-02-19T15:54:34.777Z,74.37
2023-02-19T15:57:09.517Z,74.96
2023-02-19T15:59:45.883Z,74.45
2023-02-19T16:02:14.801Z,74.96
2023-02-19T16:04:44.180Z,74.88
2023-02-19T16:07:18.761Z,75.37
2023-02-19T16:09:45.515Z,75.42
2023-02-19T16:12:18.759Z,74.77
2023-02-19T16:14:47.368Z,75.04
2023-02-19T16:17:21.276Z,75.39
2023-02-19T16:20:00.570Z,75.56
2023-02-19T16:22:30.477Z,75.74
2023-02-19T16:25:01.922Z,75.81
2023-02-19T16:27:41.876Z,76.26
2023-02-19T16:32:47.712Z,76.56
2023-02-19T16:35:22.708Z,76.61
2023-02-19T16:37:59.962Z,77.02
2023-02-19T16:40:35.536Z,77.06
2023-02-19T16:45:47.606Z,78.58
2023-02-19T16:48:14.528Z,78.68
2023-02-19T16:50:42.352Z,79.25
2023-02-19T16:55:43.163Z,78.72
2023-02-19T16:58:09.889Z,78.51
2023-02-19T17:00:36.637Z,78.07
2023-02-19T17:03:09.447Z,78.24
2023-02-19T17:05:38.519Z,77.94
2023-02-19T17:10:43.272Z,78.31
2023-02-19T17:13:10.184Z,78.40
2023-02-19T17:15:36.906Z,79.28
2023-02-19T17:18:06.508Z,79.60
2023-02-19T17:20:35.671Z,80.19
2023-02-19T17:23:02.391Z,80.48
2023-02-19T17:25:29.377Z,80.98
2023-02-19T17:27:56.177Z,81.13
2023-02-19T17:30:29.445Z,81.46
2023-02-19T17:32:59.255Z,81.72
2023-02-19T17:35:26.159Z,81.83
2023-02-19T17:37:55.277Z,82.12
2023-02-19T17:40:32.657Z,82.20
2023-02-19T17:43:05.274Z,82.45
2023-02-19T17:45:35.337Z,81.91
2023-02-19T17:48:02.107Z,82.33
2023-02-19T17:50:31.682Z,82.53
2023-02-19T17:53:02.444Z,82.75
2023-02-19T17:55:29.336Z,82.66
2023-02-19T17:57:56.632Z,82.86
2023-02-19T18:00:29.021Z,83.45
2023-02-19T18:02:56.287Z,83.56
2023-02-19T18:05:23.405Z,83.64
2023-02-19T18:07:51.130Z,83.83
2023-02-19T18:12:43.605Z,84.36
2023-02-19T18:15:15.941Z,83.92
2023-02-19T18:17:45.329Z,84.32
2023-02-19T18:22:43.643Z,84.48
2023-02-19T18:25:11.287Z,85.13
2023-02-19T18:27:38.289Z,84.80
2023-02-19T18:30:06.136Z,85.49
2023-02-19T18:32:33.164Z,85.05
2023-02-19T18:35:02.802Z,85.33
2023-02-19T18:37:33.171Z,85.46
2023-02-19T18:40:13.880Z,85.52
2023-02-19T18:42:40.972Z,85.98
2023-02-19T18:45:11.415Z,86.56
2023-02-19T18:47:38.144Z,86.60
2023-02-19T18:50:08.414Z,86.79
2023-02-19T18:52:35.532Z,87.32
2023-02-19T18:55:02.449Z,87.78
2023-02-19T18:57:30.061Z,87.88
2023-02-19T18:59:56.782Z,88.14
2023-02-19T19:02:23.584Z,88.71
2023-02-19T19:04:53.255Z,88.89
2023-02-19T19:07:21.436Z,88.56
2023-02-19T19:09:49.233Z,87.99
2023-02-19T19:14:43.451Z,87.91
2023-02-19T19:17:10.376Z,87.26
2023-02-19T19:19:37.270Z,87.05
2023-02-19T19:22:04.086Z,88.20
2023-02-19T19:24:34.373Z,90.95
2023-02-19T19:27:01.190Z,93.02
2023-02-19T19:29:28.524Z,93.69
2023-02-19T19:31:55.388Z,94.45
2023-02-19T19:34:22.191Z,93.70
2023-02-19T19:36:49.126Z,94.96
2023-02-19T19:39:16.172Z,94.30
2023-02-19T19:41:44.780Z,95.84
2023-02-19T19:46:45.021Z,95.96
2023-02-19T19:49:12.438Z,95.98
2023-02-19T19:51:46.162Z,96.48
2023-02-19T19:54:14.975Z,97.74
2023-02-19T19:56:46.492Z,95.66
2023-02-19T19:59:15.217Z,96.75
2023-02-19T20:01:52.905Z,96.29
2023-02-19T20:04:22.030Z,96.35
2023-02-19T20:06:49.126Z,97.00
2023-02-19T20:11:51.356Z,96.96
2023-02-19T20:14:17.948Z,97.14
2023-02-19T20:16:47.704Z,97.38
2023-02-19T20:19:16.020Z,97.73
2023-02-19T20:21:53.567Z,97.53
2023-02-19T20:24:26.135Z,97.50
2023-02-19T20:27:02.294Z,97.79
2023-02-19T20:29:33.394Z,98.10
2023-02-19T20:32:02.801Z,98.22
2023-02-19T20:34:32.826Z,97.89
2023-02-19T20:36:59.785Z,97.93
2023-02-19T20:39:29.652Z,98.66
2023-02-19T20:41:58.399Z,99.84
2023-02-19T20:44:26.740Z,100.00
2023-02-19T20:46:54.008Z,100.00
2023-02-19T20:49:24.446Z,100.00
2023-02-19T20:51:58.167Z,100.00
2023-02-19T20:54:30.883Z,100.00
2023-02-19T20:57:00.389Z,100.00
2023-02-19T20:59:30.981Z,100.00
2023-02-19T21:01:59.149Z,100.00
2023-02-19T21:04:26.068Z,100.00
2023-02-19T21:06:52.916Z,100.00
2023-02-19T21:09:20.823Z,100.00
2023-02-19T21:11:48.399Z,100.00
2023-02-19T21:14:16.260Z,100.00
2023-02-19T21:16:43.041Z,100.00
2023-02-19T21:19:10.171Z,100.00
2023-02-19T21:21:40.534Z,100.00
2023-02-19T21:26:45.099Z,100.00
2023-02-19T21:29:19.235Z,100.00
2023-02-19T21:31:48.254Z,100.00
2023-02-19T21:34:19.000Z,100.00
2023-02-19T21:36:46.214Z,100.00
2023-02-19T21:39:16.502Z,100.00
2023-02-19T21:41:43.334Z,100.00
2023-02-19T21:44:10.308Z,100.00
2023-02-19T21:46:37.301Z,100.00
2023-02-19T21:49:05.263Z,100.00
2023-02-19T21:51:37.530Z,100.00
2023-02-19T21:54:06.083Z,100.00
2023-02-19T21:56:36.377Z,100.00
2023-02-19T21:59:16.041Z,100.00
2023-02-19T22:01:44.811Z,100.00
2023-02-19T22:04:15.495Z,100.00
2023-02-19T22:06:42.571Z,100.00
2023-02-19T22:11:43.595Z,100.00
2023-02-19T22:14:12.833Z,100.00
2023-02-19T22:16:39.823Z,100.00
2023-02-19T22:19:06.522Z,100.00
2023-02-19T22:21:33.270Z,100.00
2023-02-19T22:24:01.650Z,100.00
2023-02-19T22:26:31.968Z,100.00
2023-02-19T22:28:59.749Z,100.00
2023-02-19T22:31:28.224Z,100.00
2023-02-19T22:33:56.549Z,100.00
2023-02-19T22:36:28.162Z,100.00
2023-02-19T22:38:54.895Z,100.00
2023-02-19T22:41:24.616Z,100.00
2023-02-19T22:43:54.894Z,100.00
2023-02-19T22:46:24.748Z,100.00
2023-02-19T22:48:51.703Z,100.00
2023-02-19T22:51:21.733Z,100.00
2023-02-19T22:53:51.466Z,100.00
2023-02-19T22:56:18.054Z,100.00
2023-02-19T22:58:45.081Z,100.00
2023-02-19T23:01:13.805Z,100.00
2023-02-19T23:03:46.625Z,100.00
2023-02-19T23:06:16.715Z,100.00
2023-02-19T23:08:44.306Z,100.00
2023-02-19T23:11:12.974Z,100.00
2023-02-19T23:13:45.838Z,100.00
2023-02-19T23:16:16.203Z,100.00
2023-02-19T23:18:43.045Z,100.00
2023-02-19T23:21:11.229Z,100.00
2023-02-19T23:23:40.869Z,100.00
2023-02-19T23:26:10.941Z,100.00
2023-02-19T23:28:40.437Z,100.00
2023-02-19T23:31:07.434Z,100.00
2023-02-19T23:33:34.594Z,100.00
2023-02-19T23:36:01.343Z,100.00
2023-02-19T23:38:28.256Z,100.00
2023-02-19T23:41:01.832Z,100.00
2023-02-19T23:43:28.932Z,100.00
2023-02-19T23:45:55.761Z,100.00
2023-02-19T23:48:22.787Z,100.00
2023-02-19T23:50:49.686Z,100.00
2023-02-19T23:53:16.430Z,100.00
2023-02-19T23:55:43.142Z,100.00
2023-02-19T23:58:11.598Z,100.00
